sensor_id;sensor_type;location;lat;lon;timestamp;P1;durP1;ratioP1;P2;durP2;ratioP2
25191;SDS011;13143;50.924;5.320;2024-03-17T00:02:23;16.70;;;10.07;;
25191;SDS011;13143;50.924;5.320;2024-03-17T00:04:49;17.75;;;10.77;;
25191;SDS011;13143;50.924;5.320;2024-03-17T00:07:16;17.15;;;10.60;;
25191;SDS011;13143;50.924;5.320;2024-03-17T00:09:42;17.75;;;9.85;;
25191;SDS011;13143;50.924;5.320;2024-03-17T00:12:08;18.77;;;9.82;;
25191;SDS011;13143;50.924;5.320;2024-03-17T00:14:34;15.93;;;9.35;;
25191;SDS011;13143;50.924;5.320;2024-03-17T00:17:01;17.05;;;9.77;;
25191;SDS011;13143;50.924;5.320;2024-03-17T00:19:26;18.95;;;10.13;;
25191;SDS011;13143;50.924;5.320;2024-03-17T00:21:53;14.75;;;9.35;;
25191;SDS011;13143;50.924;5.320;2024-03-17T00:24:19;13.05;;;9.52;;
25191;SDS011;13143;50.924;5.320;2024-03-17T00:26:46;12.18;;;9.15;;
25191;SDS011;13143;50.924;5.320;2024-03-17T00:29:13;14.50;;;9.52;;
25191;SDS011;13143;50.924;5.320;2024-03-17T00:31:40;12.60;;;9.57;;
25191;SDS011;13143;50.924;5.320;2024-03-17T00:34:06;16.50;;;9.02;;
25191;SDS011;13143;50.924;5.320;2024-03-17T00:36:33;17.27;;;10.93;;
25191;SDS011;13143;50.924;5.320;2024-03-17T00:38:59;12.95;;;8.98;;
25191;SDS011;13143;50.924;5.320;2024-03-17T00:41:26;12.35;;;8.73;;
25191;SDS011;13143;50.924;5.320;2024-03-17T00:43:52;13.80;;;8.18;;
25191;SDS011;13143;50.924;5.320;2024-03-17T00:46:20;14.73;;;8.77;;
25191;SDS011;13143;50.924;5.320;2024-03-17T00:48:48;14.73;;;8.98;;
25191;SDS011;13143;50.924;5.320;2024-03-17T00:51:14;12.77;;;9.00;;
25191;SDS011;13143;50.924;5.320;2024-03-17T00:53:41;17.92;;;8.98;;
25191;SDS011;13143;50.924;5.320;2024-03-17T00:56:07;13.75;;;9.10;;
25191;SDS011;13143;50.924;5.320;2024-03-17T00:58:33;18.75;;;9.15;;
25191;SDS011;13143;50.924;5.320;2024-03-17T01:00:59;13.20;;;8.82;;
25191;SDS011;13143;50.924;5.320;2024-03-17T01:03:25;13.98;;;9.15;;
25191;SDS011;13143;50.924;5.320;2024-03-17T01:05:53;13.65;;;8.80;;
25191;SDS011;13143;50.924;5.320;2024-03-17T01:08:19;14.40;;;8.88;;
25191;SDS011;13143;50.924;5.320;2024-03-17T01:10:46;11.38;;;8.45;;
25191;SDS011;13143;50.924;5.320;2024-03-17T01:13:15;15.52;;;9.60;;
25191;SDS011;13143;50.924;5.320;2024-03-17T01:15:41;13.00;;;8.52;;
25191;SDS011;13143;50.924;5.320;2024-03-17T01:18:08;16.73;;;9.40;;
25191;SDS011;13143;50.924;5.320;2024-03-17T01:20:34;14.18;;;9.52;;
25191;SDS011;13143;50.924;5.320;2024-03-17T01:23:03;12.88;;;9.18;;
25191;SDS011;13143;50.924;5.320;2024-03-17T01:25:29;16.70;;;10.15;;
25191;SDS011;13143;50.924;5.320;2024-03-17T01:27:56;18.73;;;10.40;;
25191;SDS011;13143;50.924;5.320;2024-03-17T01:30:23;14.38;;;9.95;;
25191;SDS011;13143;50.924;5.320;2024-03-17T01:32:50;15.13;;;9.48;;
25191;SDS011;13143;50.924;5.320;2024-03-17T01:35:17;16.75;;;10.90;;
25191;SDS011;13143;50.924;5.320;2024-03-17T01:37:43;14.65;;;10.15;;
25191;SDS011;13143;50.924;5.320;2024-03-17T01:40:09;15.57;;;9.82;;
25191;SDS011;13143;50.924;5.320;2024-03-17T01:42:36;16.75;;;10.50;;
25191;SDS011;13143;50.924;5.320;2024-03-17T01:45:18;14.98;;;9.50;;
25191;SDS011;13143;50.924;5.320;2024-03-17T01:47:50;16.95;;;11.18;;
25191;SDS011;13143;50.924;5.320;2024-03-17T01:50:16;15.73;;;10.18;;
25191;SDS011;13143;50.924;5.320;2024-03-17T01:52:50;17.23;;;10.93;;
25191;SDS011;13143;50.924;5.320;2024-03-17T01:55:18;19.95;;;11.38;;
25191;SDS011;13143;50.924;5.320;2024-03-17T01:57:45;17.60;;;11.18;;
25191;SDS011;13143;50.924;5.320;2024-03-17T02:00:12;19.42;;;11.43;;
25191;SDS011;13143;50.924;5.320;2024-03-17T02:02:39;20.20;;;11.25;;
25191;SDS011;13143;50.924;5.320;2024-03-17T02:05:06;17.70;;;11.52;;
25191;SDS011;13143;50.924;5.320;2024-03-17T02:07:32;17.25;;;11.25;;
25191;SDS011;13143;50.924;5.320;2024-03-17T02:09:59;18.02;;;11.70;;
25191;SDS011;13143;50.924;5.320;2024-03-17T02:12:25;15.63;;;11.05;;
25191;SDS011;13143;50.924;5.320;2024-03-17T02:14:51;19.17;;;11.82;;
25191;SDS011;13143;50.924;5.320;2024-03-17T02:17:17;17.20;;;11.52;;
25191;SDS011;13143;50.924;5.320;2024-03-17T02:19:43;19.23;;;11.77;;
25191;SDS011;13143;50.924;5.320;2024-03-17T02:22:13;17.35;;;10.93;;
25191;SDS011;13143;50.924;5.320;2024-03-17T02:24:40;17.27;;;11.35;;
25191;SDS011;13143;50.924;5.320;2024-03-17T02:27:06;19.30;;;10.88;;
25191;SDS011;13143;50.924;5.320;2024-03-17T02:29:32;17.80;;;10.63;;
25191;SDS011;13143;50.924;5.320;2024-03-17T02:31:58;18.48;;;11.02;;
25191;SDS011;13143;50.924;5.320;2024-03-17T02:34:24;15.68;;;11.05;;
25191;SDS011;13143;50.924;5.320;2024-03-17T02:36:50;16.38;;;10.27;;
25191;SDS011;13143;50.924;5.320;2024-03-17T02:39:16;17.23;;;10.63;;
25191;SDS011;13143;50.924;5.320;2024-03-17T02:42:01;17.23;;;9.90;;
25191;SDS011;13143;50.924;5.320;2024-03-17T02:44:29;17.02;;;9.88;;
25191;SDS011;13143;50.924;5.320;2024-03-17T02:46:56;15.45;;;9.43;;
25191;SDS011;13143;50.924;5.320;2024-03-17T02:49:23;14.93;;;9.60;;
25191;SDS011;13143;50.924;5.320;2024-03-17T02:51:54;16.38;;;9.23;;
25191;SDS011;13143;50.924;5.320;2024-03-17T02:54:20;17.70;;;9.27;;
25191;SDS011;13143;50.924;5.320;2024-03-17T02:56:48;16.45;;;9.07;;
25191;SDS011;13143;50.924;5.320;2024-03-17T02:59:14;14.55;;;8.38;;
25191;SDS011;13143;50.924;5.320;2024-03-17T03:01:40;17.83;;;9.00;;
25191;SDS011;13143;50.924;5.320;2024-03-17T03:04:06;15.35;;;8.90;;
25191;SDS011;13143;50.924;5.320;2024-03-17T03:06:33;16.48;;;9.57;;
25191;SDS011;13143;50.924;5.320;2024-03-17T03:08:59;13.68;;;8.27;;
25191;SDS011;13143;50.924;5.320;2024-03-17T03:11:26;17.02;;;8.75;;
25191;SDS011;13143;50.924;5.320;2024-03-17T03:13:52;12.57;;;8.20;;
25191;SDS011;13143;50.924;5.320;2024-03-17T03:16:18;15.02;;;8.63;;
25191;SDS011;13143;50.924;5.320;2024-03-17T03:18:44;19.23;;;8.23;;
25191;SDS011;13143;50.924;5.320;2024-03-17T03:21:11;12.23;;;7.57;;
25191;SDS011;13143;50.924;5.320;2024-03-17T03:23:40;12.63;;;7.90;;
25191;SDS011;13143;50.924;5.320;2024-03-17T03:26:07;12.40;;;8.50;;
25191;SDS011;13143;50.924;5.320;2024-03-17T03:28:34;18.55;;;7.65;;
25191;SDS011;13143;50.924;5.320;2024-03-17T03:31:01;15.07;;;7.28;;
25191;SDS011;13143;50.924;5.320;2024-03-17T03:33:27;17.08;;;7.72;;
25191;SDS011;13143;50.924;5.320;2024-03-17T03:35:53;14.50;;;7.82;;
25191;SDS011;13143;50.924;5.320;2024-03-17T03:38:21;11.95;;;7.22;;
25191;SDS011;13143;50.924;5.320;2024-03-17T03:40:48;12.98;;;7.65;;
25191;SDS011;13143;50.924;5.320;2024-03-17T03:43:14;13.40;;;7.18;;
25191;SDS011;13143;50.924;5.320;2024-03-17T03:45:41;11.68;;;7.70;;
25191;SDS011;13143;50.924;5.320;2024-03-17T03:48:07;13.82;;;7.63;;
25191;SDS011;13143;50.924;5.320;2024-03-17T03:50:34;11.68;;;7.25;;
25191;SDS011;13143;50.924;5.320;2024-03-17T03:53:00;12.25;;;7.63;;
25191;SDS011;13143;50.924;5.320;2024-03-17T03:55:27;11.93;;;7.22;;
25191;SDS011;13143;50.924;5.320;2024-03-17T03:57:53;19.42;;;7.65;;
25191;SDS011;13143;50.924;5.320;2024-03-17T04:00:20;14.43;;;7.00;;
25191;SDS011;13143;50.924;5.320;2024-03-17T04:02:50;11.95;;;7.50;;
25191;SDS011;13143;50.924;5.320;2024-03-17T04:05:18;13.73;;;6.93;;
25191;SDS011;13143;50.924;5.320;2024-03-17T04:07:45;12.50;;;7.00;;
25191;SDS011;13143;50.924;5.320;2024-03-17T04:10:13;9.75;;;7.00;;
25191;SDS011;13143;50.924;5.320;2024-03-17T04:12:40;9.90;;;6.72;;
25191;SDS011;13143;50.924;5.320;2024-03-17T04:15:08;13.85;;;6.93;;
25191;SDS011;13143;50.924;5.320;2024-03-17T04:17:36;9.30;;;6.53;;
25191;SDS011;13143;50.924;5.320;2024-03-17T04:20:03;11.75;;;6.30;;
25191;SDS011;13143;50.924;5.320;2024-03-17T04:22:34;9.32;;;6.55;;
25191;SDS011;13143;50.924;5.320;2024-03-17T04:25:01;11.32;;;6.25;;
25191;SDS011;13143;50.924;5.320;2024-03-17T04:27:27;16.08;;;6.45;;
25191;SDS011;13143;50.924;5.320;2024-03-17T04:29:54;10.02;;;6.10;;
25191;SDS011;13143;50.924;5.320;2024-03-17T04:32:21;10.65;;;5.60;;
25191;SDS011;13143;50.924;5.320;2024-03-17T04:34:48;12.43;;;6.00;;
25191;SDS011;13143;50.924;5.320;2024-03-17T04:37:15;10.57;;;5.95;;
25191;SDS011;13143;50.924;5.320;2024-03-17T04:39:43;7.97;;;5.07;;
25191;SDS011;13143;50.924;5.320;2024-03-17T04:42:11;9.70;;;5.78;;
25191;SDS011;13143;50.924;5.320;2024-03-17T04:44:39;7.15;;;4.95;;
25191;SDS011;13143;50.924;5.320;2024-03-17T04:47:06;6.72;;;4.90;;
25191;SDS011;13143;50.924;5.320;2024-03-17T04:49:34;8.27;;;5.68;;
25191;SDS011;13143;50.924;5.320;2024-03-17T04:52:08;10.02;;;5.25;;
25191;SDS011;13143;50.924;5.320;2024-03-17T04:54:35;10.15;;;5.47;;
25191;SDS011;13143;50.924;5.320;2024-03-17T04:57:01;11.68;;;6.25;;
25191;SDS011;13143;50.924;5.320;2024-03-17T04:59:28;9.70;;;5.07;;
25191;SDS011;13143;50.924;5.320;2024-03-17T05:01:54;6.80;;;4.40;;
25191;SDS011;13143;50.924;5.320;2024-03-17T05:04:21;8.73;;;5.05;;
25191;SDS011;13143;50.924;5.320;2024-03-17T05:06:50;9.27;;;5.38;;
25191;SDS011;13143;50.924;5.320;2024-03-17T05:09:16;8.00;;;4.82;;
25191;SDS011;13143;50.924;5.320;2024-03-17T05:11:43;9.68;;;4.75;;
25191;SDS011;13143;50.924;5.320;2024-03-17T05:14:09;6.35;;;4.55;;
25191;SDS011;13143;50.924;5.320;2024-03-17T05:16:35;10.10;;;5.40;;
25191;SDS011;13143;50.924;5.320;2024-03-17T05:19:01;10.98;;;5.13;;
25191;SDS011;13143;50.924;5.320;2024-03-17T05:21:29;11.30;;;5.93;;
25191;SDS011;13143;50.924;5.320;2024-03-17T05:23:56;8.68;;;5.30;;
25191;SDS011;13143;50.924;5.320;2024-03-17T05:26:26;10.82;;;4.75;;
25191;SDS011;13143;50.924;5.320;2024-03-17T05:28:53;8.70;;;5.00;;
25191;SDS011;13143;50.924;5.320;2024-03-17T05:31:19;7.10;;;5.30;;
25191;SDS011;13143;50.924;5.320;2024-03-17T05:33:47;10.20;;;5.43;;
25191;SDS011;13143;50.924;5.320;2024-03-17T05:36:14;8.90;;;5.55;;
25191;SDS011;13143;50.924;5.320;2024-03-17T05:38:40;7.47;;;5.45;;
25191;SDS011;13143;50.924;5.320;2024-03-17T05:41:07;7.03;;;4.85;;
25191;SDS011;13143;50.924;5.320;2024-03-17T05:43:35;10.43;;;5.20;;
25191;SDS011;13143;50.924;5.320;2024-03-17T05:46:06;9.52;;;5.50;;
25191;SDS011;13143;50.924;5.320;2024-03-17T05:48:38;8.82;;;4.90;;
25191;SDS011;13143;50.924;5.320;2024-03-17T05:51:05;9.80;;;5.07;;
25191;SDS011;13143;50.924;5.320;2024-03-17T05:53:32;8.02;;;5.10;;
25191;SDS011;13143;50.924;5.320;2024-03-17T05:55:59;7.97;;;4.85;;
25191;SDS011;13143;50.924;5.320;2024-03-17T05:58:25;6.80;;;4.57;;
25191;SDS011;13143;50.924;5.320;2024-03-17T06:00:52;8.25;;;5.32;;
25191;SDS011;13143;50.924;5.320;2024-03-17T06:03:18;8.80;;;5.28;;
25191;SDS011;13143;50.924;5.320;2024-03-17T06:05:44;9.75;;;5.28;;
25191;SDS011;13143;50.924;5.320;2024-03-17T06:08:11;8.63;;;5.10;;
25191;SDS011;13143;50.924;5.320;2024-03-17T06:10:42;8.15;;;5.05;;
25191;SDS011;13143;50.924;5.320;2024-03-17T06:13:10;11.00;;;5.45;;
25191;SDS011;13143;50.924;5.320;2024-03-17T06:15:38;10.20;;;5.45;;
25191;SDS011;13143;50.924;5.320;2024-03-17T06:18:05;10.30;;;5.43;;
25191;SDS011;13143;50.924;5.320;2024-03-17T06:20:34;7.38;;;4.80;;
25191;SDS011;13143;50.924;5.320;2024-03-17T06:23:00;8.55;;;5.65;;
25191;SDS011;13143;50.924;5.320;2024-03-17T06:25:26;10.63;;;5.80;;
25191;SDS011;13143;50.924;5.320;2024-03-17T06:27:53;9.95;;;5.10;;
25191;SDS011;13143;50.924;5.320;2024-03-17T06:30:20;10.13;;;5.10;;
25191;SDS011;13143;50.924;5.320;2024-03-17T06:32:47;10.30;;;5.63;;
25191;SDS011;13143;50.924;5.320;2024-03-17T06:35:13;13.50;;;6.05;;
25191;SDS011;13143;50.924;5.320;2024-03-17T06:37:51;9.77;;;5.50;;
25191;SDS011;13143;50.924;5.320;2024-03-17T06:40:17;7.80;;;4.95;;
25191;SDS011;13143;50.924;5.320;2024-03-17T06:42:44;9.30;;;5.20;;
25191;SDS011;13143;50.924;5.320;2024-03-17T06:45:10;9.15;;;5.38;;
25191;SDS011;13143;50.924;5.320;2024-03-17T06:47:37;9.77;;;5.57;;
25191;SDS011;13143;50.924;5.320;2024-03-17T06:50:06;8.35;;;6.00;;
25191;SDS011;13143;50.924;5.320;2024-03-17T06:52:35;8.40;;;5.28;;
25191;SDS011;13143;50.924;5.320;2024-03-17T06:55:02;12.38;;;5.80;;
25191;SDS011;13143;50.924;5.320;2024-03-17T06:57:28;9.90;;;5.90;;
25191;SDS011;13143;50.924;5.320;2024-03-17T06:59:55;10.85;;;5.72;;
25191;SDS011;13143;50.924;5.320;2024-03-17T07:02:20;9.20;;;5.85;;
25191;SDS011;13143;50.924;5.320;2024-03-17T07:04:47;8.73;;;5.78;;
25191;SDS011;13143;50.924;5.320;2024-03-17T07:07:13;8.98;;;5.65;;
25191;SDS011;13143;50.924;5.320;2024-03-17T07:09:40;15.68;;;5.88;;
25191;SDS011;13143;50.924;5.320;2024-03-17T07:12:07;10.07;;;6.25;;
25191;SDS011;13143;50.924;5.320;2024-03-17T07:14:34;10.02;;;6.20;;
25191;SDS011;13143;50.924;5.320;2024-03-17T07:17:01;12.43;;;6.55;;
25191;SDS011;13143;50.924;5.320;2024-03-17T07:19:27;15.27;;;6.40;;
25191;SDS011;13143;50.924;5.320;2024-03-17T07:21:54;11.32;;;6.93;;
25191;SDS011;13143;50.924;5.320;2024-03-17T07:24:20;12.13;;;7.03;;
25191;SDS011;13143;50.924;5.320;2024-03-17T07:26:50;12.18;;;6.72;;
25191;SDS011;13143;50.924;5.320;2024-03-17T07:29:16;10.23;;;6.45;;
25191;SDS011;13143;50.924;5.320;2024-03-17T07:31:44;13.02;;;7.05;;
25191;SDS011;13143;50.924;5.320;2024-03-17T07:34:10;13.35;;;6.65;;
25191;SDS011;13143;50.924;5.320;2024-03-17T07:36:37;12.40;;;6.93;;
25191;SDS011;13143;50.924;5.320;2024-03-17T07:39:03;14.27;;;6.70;;
25191;SDS011;13143;50.924;5.320;2024-03-17T07:41:29;10.77;;;6.80;;
25191;SDS011;13143;50.924;5.320;2024-03-17T07:43:55;11.75;;;7.22;;
25191;SDS011;13143;50.924;5.320;2024-03-17T07:46:22;13.15;;;7.60;;
25191;SDS011;13143;50.924;5.320;2024-03-17T07:48:48;12.82;;;7.20;;
25191;SDS011;13143;50.924;5.320;2024-03-17T07:51:15;14.18;;;6.65;;
25191;SDS011;13143;50.924;5.320;2024-03-17T07:53:43;12.88;;;6.95;;
25191;SDS011;13143;50.924;5.320;2024-03-17T07:56:17;15.35;;;7.20;;
25191;SDS011;13143;50.924;5.320;2024-03-17T07:58:45;9.35;;;6.65;;
25191;SDS011;13143;50.924;5.320;2024-03-17T08:01:14;10.65;;;7.20;;
25191;SDS011;13143;50.924;5.320;2024-03-17T08:03:42;15.70;;;7.47;;
25191;SDS011;13143;50.924;5.320;2024-03-17T08:06:20;15.25;;;7.07;;
25191;SDS011;13143;50.924;5.320;2024-03-17T08:08:47;14.68;;;7.13;;
25191;SDS011;13143;50.924;5.320;2024-03-17T08:11:13;13.15;;;7.25;;
25191;SDS011;13143;50.924;5.320;2024-03-17T08:13:40;12.43;;;7.72;;
25191;SDS011;13143;50.924;5.320;2024-03-17T08:16:06;12.50;;;7.68;;
25191;SDS011;13143;50.924;5.320;2024-03-17T08:18:36;15.93;;;7.40;;
25191;SDS011;13143;50.924;5.320;2024-03-17T08:21:02;11.90;;;7.95;;
25191;SDS011;13143;50.924;5.320;2024-03-17T08:23:31;14.70;;;7.68;;
25191;SDS011;13143;50.924;5.320;2024-03-17T08:26:04;16.30;;;7.50;;
25191;SDS011;13143;50.924;5.320;2024-03-17T08:28:30;18.92;;;7.50;;
25191;SDS011;13143;50.924;5.320;2024-03-17T08:33:24;14.23;;;7.47;;
25191;SDS011;13143;50.924;5.320;2024-03-17T08:35:57;13.55;;;7.88;;
25191;SDS011;13143;50.924;5.320;2024-03-17T08:38:25;11.93;;;8.15;;
25191;SDS011;13143;50.924;5.320;2024-03-17T08:40:53;13.52;;;6.88;;
25191;SDS011;13143;50.924;5.320;2024-03-17T08:43:20;16.67;;;8.48;;
25191;SDS011;13143;50.924;5.320;2024-03-17T08:45:54;17.92;;;8.20;;
25191;SDS011;13143;50.924;5.320;2024-03-17T08:48:24;14.85;;;7.82;;
25191;SDS011;13143;50.924;5.320;2024-03-17T08:50:51;14.20;;;8.05;;
25191;SDS011;13143;50.924;5.320;2024-03-17T08:53:19;15.93;;;8.45;;
25191;SDS011;13143;50.924;5.320;2024-03-17T08:55:45;21.90;;;9.05;;
25191;SDS011;13143;50.924;5.320;2024-03-17T08:58:11;14.48;;;8.05;;
25191;SDS011;13143;50.924;5.320;2024-03-17T09:00:37;14.85;;;8.07;;
25191;SDS011;13143;50.924;5.320;2024-03-17T09:03:04;11.52;;;7.00;;
25191;SDS011;13143;50.924;5.320;2024-03-17T09:05:32;12.20;;;7.30;;
25191;SDS011;13143;50.924;5.320;2024-03-17T09:07:59;13.40;;;7.63;;
25191;SDS011;13143;50.924;5.320;2024-03-17T09:10:25;11.35;;;7.57;;
25191;SDS011;13143;50.924;5.320;2024-03-17T09:12:51;12.77;;;7.53;;
25191;SDS011;13143;50.924;5.320;2024-03-17T09:15:17;13.00;;;6.88;;
25191;SDS011;13143;50.924;5.320;2024-03-17T09:17:43;11.65;;;6.78;;
25191;SDS011;13143;50.924;5.320;2024-03-17T09:20:10;12.20;;;6.47;;
25191;SDS011;13143;50.924;5.320;2024-03-17T09:22:38;14.38;;;7.05;;
25191;SDS011;13143;50.924;5.320;2024-03-17T09:25:05;8.80;;;6.05;;
25191;SDS011;13143;50.924;5.320;2024-03-17T09:27:33;13.57;;;6.93;;
25191;SDS011;13143;50.924;5.320;2024-03-17T09:30:05;10.93;;;6.10;;
25191;SDS011;13143;50.924;5.320;2024-03-17T09:32:37;12.82;;;7.13;;
25191;SDS011;13143;50.924;5.320;2024-03-17T09:35:04;11.93;;;6.50;;
25191;SDS011;13143;50.924;5.320;2024-03-17T09:37:30;13.02;;;6.32;;
25191;SDS011;13143;50.924;5.320;2024-03-17T09:40:00;12.50;;;6.68;;
25191;SDS011;13143;50.924;5.320;2024-03-17T09:42:26;8.23;;;5.95;;
25191;SDS011;13143;50.924;5.320;2024-03-17T09:44:53;10.88;;;6.35;;
25191;SDS011;13143;50.924;5.320;2024-03-17T09:47:23;11.13;;;5.90;;
25191;SDS011;13143;50.924;5.320;2024-03-17T09:49:52;12.82;;;6.30;;
25191;SDS011;13143;50.924;5.320;2024-03-17T09:52:24;9.82;;;5.22;;
25191;SDS011;13143;50.924;5.320;2024-03-17T09:57:27;13.10;;;5.00;;
25191;SDS011;13143;50.924;5.320;2024-03-17T09:59:55;10.15;;;4.88;;
25191;SDS011;13143;50.924;5.320;2024-03-17T10:02:21;8.75;;;4.80;;
25191;SDS011;13143;50.924;5.320;2024-03-17T10:04:48;10.65;;;5.85;;
25191;SDS011;13143;50.924;5.320;2024-03-17T10:07:15;8.68;;;4.82;;
25191;SDS011;13143;50.924;5.320;2024-03-17T10:09:42;10.30;;;5.00;;
25191;SDS011;13143;50.924;5.320;2024-03-17T10:12:28;9.82;;;5.00;;
25191;SDS011;13143;50.924;5.320;2024-03-17T10:14:58;10.25;;;4.95;;
25191;SDS011;13143;50.924;5.320;2024-03-17T10:17:29;10.35;;;5.10;;
25191;SDS011;13143;50.924;5.320;2024-03-17T10:20:15;9.88;;;4.88;;
25191;SDS011;13143;50.924;5.320;2024-03-17T10:23:05;9.70;;;5.38;;
25191;SDS011;13143;50.924;5.320;2024-03-17T10:25:33;10.48;;;5.47;;
25191;SDS011;13143;50.924;5.320;2024-03-17T10:28:04;9.07;;;5.28;;
25191;SDS011;13143;50.924;5.320;2024-03-17T10:30:40;8.98;;;5.35;;
25191;SDS011;13143;50.924;5.320;2024-03-17T10:33:06;11.70;;;5.43;;
25191;SDS011;13143;50.924;5.320;2024-03-17T10:35:48;9.65;;;4.95;;
25191;SDS011;13143;50.924;5.320;2024-03-17T10:38:14;9.38;;;4.90;;
25191;SDS011;13143;50.924;5.320;2024-03-17T10:40:41;9.65;;;5.55;;
25191;SDS011;13143;50.924;5.320;2024-03-17T10:43:07;10.38;;;5.55;;
25191;SDS011;13143;50.924;5.320;2024-03-17T10:45:34;9.98;;;4.70;;
25191;SDS011;13143;50.924;5.320;2024-03-17T10:48:07;9.82;;;5.53;;
25191;SDS011;13143;50.924;5.320;2024-03-17T10:50:35;9.98;;;5.25;;
25191;SDS011;13143;50.924;5.320;2024-03-17T10:53:04;9.15;;;5.15;;
25191;SDS011;13143;50.924;5.320;2024-03-17T10:55:44;14.15;;;5.10;;
25191;SDS011;13143;50.924;5.320;2024-03-17T10:58:25;8.63;;;4.68;;
25191;SDS011;13143;50.924;5.320;2024-03-17T11:01:00;7.15;;;4.82;;
25191;SDS011;13143;50.924;5.320;2024-03-17T11:03:30;7.03;;;4.65;;
25191;SDS011;13143;50.924;5.320;2024-03-17T11:05:57;10.88;;;5.30;;
25191;SDS011;13143;50.924;5.320;2024-03-17T11:08:24;10.88;;;5.55;;
25191;SDS011;13143;50.924;5.320;2024-03-17T11:10:52;8.50;;;4.97;;
25191;SDS011;13143;50.924;5.320;2024-03-17T11:13:27;9.07;;;5.13;;
25191;SDS011;13143;50.924;5.320;2024-03-17T11:15:54;13.93;;;5.00;;
25191;SDS011;13143;50.924;5.320;2024-03-17T11:20:56;11.80;;;6.07;;
25191;SDS011;13143;50.924;5.320;2024-03-17T11:23:33;8.10;;;5.43;;
25191;SDS011;13143;50.924;5.320;2024-03-17T11:26:00;12.98;;;5.80;;
25191;SDS011;13143;50.924;5.320;2024-03-17T11:33:59;11.07;;;5.00;;
25191;SDS011;13143;50.924;5.320;2024-03-17T11:51:58;13.75;;;4.88;;
25191;SDS011;13143;50.924;5.320;2024-03-17T11:54:26;10.75;;;4.80;;
25191;SDS011;13143;50.924;5.320;2024-03-17T11:56:55;8.02;;;4.40;;
25191;SDS011;13143;50.924;5.320;2024-03-17T11:59:26;9.00;;;4.35;;
25191;SDS011;13143;50.924;5.320;2024-03-17T12:01:53;10.88;;;4.40;;
25191;SDS011;13143;50.924;5.320;2024-03-17T12:04:20;9.57;;;4.45;;
25191;SDS011;13143;50.924;5.320;2024-03-17T12:06:47;8.82;;;4.63;;
25191;SDS011;13143;50.924;5.320;2024-03-17T12:09:19;14.38;;;4.65;;
25191;SDS011;13143;50.924;5.320;2024-03-17T12:11:48;9.32;;;4.50;;
25191;SDS011;13143;50.924;5.320;2024-03-17T12:14:16;10.13;;;5.00;;
25191;SDS011;13143;50.924;5.320;2024-03-17T12:16:49;10.52;;;3.95;;
25191;SDS011;13143;50.924;5.320;2024-03-17T12:19:19;6.00;;;3.92;;
25191;SDS011;13143;50.924;5.320;2024-03-17T12:21:48;11.20;;;4.28;;
25191;SDS011;13143;50.924;5.320;2024-03-17T12:24:19;10.73;;;2.50;;
25191;SDS011;13143;50.924;5.320;2024-03-17T12:26:47;6.90;;;3.10;;
25191;SDS011;13143;50.924;5.320;2024-03-17T12:29:24;6.65;;;2.70;;
25191;SDS011;13143;50.924;5.320;2024-03-17T12:32:22;4.38;;;2.38;;
25191;SDS011;13143;50.924;5.320;2024-03-17T12:37:17;6.15;;;2.90;;
25191;SDS011;13143;50.924;5.320;2024-03-17T12:39:48;5.28;;;2.80;;
25191;SDS011;13143;50.924;5.320;2024-03-17T12:42:15;5.88;;;2.83;;
25191;SDS011;13143;50.924;5.320;2024-03-17T12:44:49;7.35;;;2.80;;
25191;SDS011;13143;50.924;5.320;2024-03-17T12:47:21;9.50;;;3.58;;
25191;SDS011;13143;50.924;5.320;2024-03-17T12:49:48;6.25;;;3.50;;
25191;SDS011;13143;50.924;5.320;2024-03-17T13:00:46;3.97;;;2.90;;
25191;SDS011;13143;50.924;5.320;2024-03-17T13:03:33;3.30;;;2.90;;
25191;SDS011;13143;50.924;5.320;2024-03-17T13:06:01;7.47;;;3.83;;
25191;SDS011;13143;50.924;5.320;2024-03-17T13:08:29;5.47;;;3.10;;
25191;SDS011;13143;50.924;5.320;2024-03-17T13:10:57;5.72;;;3.15;;
25191;SDS011;13143;50.924;5.320;2024-03-17T13:13:26;6.45;;;3.08;;
25191;SDS011;13143;50.924;5.320;2024-03-17T13:15:52;7.88;;;3.63;;
25191;SDS011;13143;50.924;5.320;2024-03-17T13:18:18;7.10;;;4.05;;
25191;SDS011;13143;50.924;5.320;2024-03-17T13:20:45;8.68;;;3.20;;
25191;SDS011;13143;50.924;5.320;2024-03-17T13:23:15;5.57;;;3.03;;
25191;SDS011;13143;50.924;5.320;2024-03-17T13:25:41;8.10;;;3.08;;
25191;SDS011;13143;50.924;5.320;2024-03-17T13:28:09;5.55;;;3.15;;
25191;SDS011;13143;50.924;5.320;2024-03-17T13:30:36;6.68;;;3.25;;
25191;SDS011;13143;50.924;5.320;2024-03-17T13:33:02;7.60;;;2.97;;
25191;SDS011;13143;50.924;5.320;2024-03-17T13:35:36;4.75;;;2.83;;
25191;SDS011;13143;50.924;5.320;2024-03-17T13:38:08;6.35;;;2.88;;
25191;SDS011;13143;50.924;5.320;2024-03-17T13:40:36;7.05;;;2.63;;
25191;SDS011;13143;50.924;5.320;2024-03-17T13:43:04;5.47;;;3.30;;
25191;SDS011;13143;50.924;5.320;2024-03-17T13:45:40;8.80;;;3.25;;
25191;SDS011;13143;50.924;5.320;2024-03-17T13:48:08;6.82;;;2.50;;
25191;SDS011;13143;50.924;5.320;2024-03-17T13:50:36;4.45;;;1.48;;
25191;SDS011;13143;50.924;5.320;2024-03-17T13:53:07;5.65;;;2.30;;
25191;SDS011;13143;50.924;5.320;2024-03-17T13:55:33;3.00;;;1.60;;
25191;SDS011;13143;50.924;5.320;2024-03-17T13:58:00;5.55;;;2.20;;
25191;SDS011;13143;50.924;5.320;2024-03-17T14:00:27;6.55;;;2.50;;
25191;SDS011;13143;50.924;5.320;2024-03-17T14:02:54;4.75;;;2.17;;
25191;SDS011;13143;50.924;5.320;2024-03-17T14:05:27;10.02;;;2.80;;
25191;SDS011;13143;50.924;5.320;2024-03-17T14:07:53;7.68;;;3.22;;
25191;SDS011;13143;50.924;5.320;2024-03-17T14:10:20;7.00;;;3.08;;
25191;SDS011;13143;50.924;5.320;2024-03-17T14:12:48;4.88;;;2.53;;
25191;SDS011;13143;50.924;5.320;2024-03-17T14:15:14;8.18;;;3.17;;
25191;SDS011;13143;50.924;5.320;2024-03-17T14:17:42;7.95;;;2.90;;
25191;SDS011;13143;50.924;5.320;2024-03-17T14:20:13;6.97;;;3.47;;
25191;SDS011;13143;50.924;5.320;2024-03-17T14:22:40;6.85;;;3.03;;
25191;SDS011;13143;50.924;5.320;2024-03-17T14:25:08;5.63;;;2.95;;
25191;SDS011;13143;50.924;5.320;2024-03-17T14:27:44;8.63;;;4.30;;
25191;SDS011;13143;50.924;5.320;2024-03-17T14:30:15;8.38;;;2.90;;
25191;SDS011;13143;50.924;5.320;2024-03-17T14:32:42;4.15;;;2.60;;
25191;SDS011;13143;50.924;5.320;2024-03-17T14:35:13;7.53;;;3.50;;
25191;SDS011;13143;50.924;5.320;2024-03-17T14:37:41;7.30;;;3.03;;
25191;SDS011;13143;50.924;5.320;2024-03-17T14:40:09;5.30;;;3.33;;
25191;SDS011;13143;50.924;5.320;2024-03-17T14:42:43;7.28;;;3.22;;
25191;SDS011;13143;50.924;5.320;2024-03-17T14:45:10;5.80;;;3.28;;
25191;SDS011;13143;50.924;5.320;2024-03-17T14:47:36;6.03;;;3.20;;
25191;SDS011;13143;50.924;5.320;2024-03-17T14:50:02;7.07;;;2.85;;
25191;SDS011;13143;50.924;5.320;2024-03-17T14:52:28;11.57;;;3.83;;
25191;SDS011;13143;50.924;5.320;2024-03-17T14:54:55;5.65;;;2.90;;
25191;SDS011;13143;50.924;5.320;2024-03-17T14:57:22;9.90;;;3.00;;
25191;SDS011;13143;50.924;5.320;2024-03-17T14:59:48;6.95;;;3.15;;
25191;SDS011;13143;50.924;5.320;2024-03-17T15:02:14;6.22;;;2.80;;
25191;SDS011;13143;50.924;5.320;2024-03-17T15:04:41;7.40;;;3.60;;
25191;SDS011;13143;50.924;5.320;2024-03-17T15:07:07;5.07;;;2.90;;
25191;SDS011;13143;50.924;5.320;2024-03-17T15:09:34;6.13;;;2.95;;
25191;SDS011;13143;50.924;5.320;2024-03-17T15:12:00;6.80;;;2.70;;
25191;SDS011;13143;50.924;5.320;2024-03-17T15:14:29;6.35;;;3.05;;
25191;SDS011;13143;50.924;5.320;2024-03-17T15:16:57;7.60;;;2.85;;
25191;SDS011;13143;50.924;5.320;2024-03-17T15:19:23;9.48;;;2.85;;
25191;SDS011;13143;50.924;5.320;2024-03-17T15:21:49;7.38;;;2.70;;
25191;SDS011;13143;50.924;5.320;2024-03-17T15:24:15;5.53;;;2.40;;